createdAt,value
2019-05-13T00:03:46.013Z,6.63
2019-05-13T00:07:53.991Z,7.30
2019-05-13T00:11:51.254Z,3.33
2019-05-13T00:15:49.930Z,8.83
2019-05-13T00:20:04.227Z,6.63
2019-05-13T00:23:58.064Z,4.47
2019-05-13T00:27:56.541Z,4.57
2019-05-13T00:32:00.133Z,4.50
2019-05-13T00:36:03.953Z,12.13
2019-05-13T00:40:03.958Z,6.30
2019-05-13T00:44:17.970Z,7.33
2019-05-13T00:48:18.772Z,7.43
2019-05-13T00:52:23.450Z,5.67
2019-05-13T00:56:24.427Z,9.63
2019-05-13T01:00:34.030Z,3.80
2019-05-13T01:04:33.969Z,3.77
2019-05-13T01:08:33.862Z,7.90
2019-05-13T01:12:34.588Z,5.70
2019-05-13T01:16:38.076Z,3.83
2019-05-13T01:20:45.458Z,5.57
2019-05-13T01:24:44.321Z,4.70
2019-05-13T01:28:45.114Z,6.17
2019-05-13T01:32:44.845Z,5.23
2019-05-13T01:36:44.628Z,5.37
2019-05-13T01:40:44.547Z,3.97
2019-05-13T01:44:45.857Z,5.73
2019-05-13T01:48:44.412Z,6.93
2019-05-13T01:52:44.535Z,6.77
2019-05-13T01:56:49.881Z,5.47
2019-05-13T02:00:51.480Z,14.40
2019-05-13T02:04:54.622Z,4.93
2019-05-13T02:08:56.484Z,3.47
2019-05-13T02:12:59.569Z,8.23
2019-05-13T02:17:04.189Z,4.27
2019-05-13T02:21:10.604Z,2.63
2019-05-13T02:25:13.776Z,7.07
2019-05-13T02:29:15.764Z,4.13
2019-05-13T02:33:14.327Z,10.33
2019-05-13T02:37:15.484Z,6.37
2019-05-13T02:41:18.518Z,5.47
2019-05-13T02:45:17.322Z,4.97
2019-05-13T02:49:22.896Z,7.67
2019-05-13T02:53:25.909Z,7.13
2019-05-13T02:57:33.060Z,6.97
2019-05-13T03:01:39.317Z,6.23
2019-05-13T03:05:42.640Z,3.03
2019-05-13T03:09:42.257Z,6.63
2019-05-13T03:13:42.606Z,7.43
2019-05-13T03:18:03.179Z,6.80
2019-05-13T03:26:14.302Z,4.43
2019-05-13T03:30:16.699Z,7.83
2019-05-13T03:34:15.747Z,6.10
2019-05-13T03:38:15.087Z,8.13
2019-05-13T03:42:16.759Z,5.57
2019-05-13T03:46:23.170Z,6.27
2019-05-13T03:50:25.204Z,6.63
2019-05-13T03:54:23.792Z,7.73
2019-05-13T03:58:23.824Z,7.10
2019-05-13T04:02:26.159Z,11.60
2019-05-13T04:06:25.383Z,9.60
2019-05-13T04:14:42.563Z,9.43
2019-05-13T04:18:42.586Z,4.00
2019-05-13T04:22:46.144Z,9.57
2019-05-13T04:26:44.734Z,6.77
2019-05-13T04:30:43.808Z,7.27
2019-05-13T04:34:43.768Z,8.50
2019-05-13T04:38:44.250Z,14.43
2019-05-13T04:42:46.747Z,5.83
2019-05-13T04:46:45.510Z,9.50
2019-05-13T04:50:45.220Z,8.83
2019-05-13T04:54:45.405Z,6.60
2019-05-13T04:58:47.206Z,9.27
2019-05-13T05:03:22.818Z,10.43
2019-05-13T05:07:37.180Z,5.57
2019-05-13T05:12:02.043Z,22.37
2019-05-13T05:16:33.377Z,8.43
2019-05-13T05:20:51.921Z,9.17
2019-05-13T05:25:11.683Z,5.47
2019-05-13T05:29:32.074Z,7.77
2019-05-13T05:33:34.082Z,9.83
2019-05-13T05:38:02.802Z,13.07
2019-05-13T05:42:03.528Z,18.13
2019-05-13T05:46:07.098Z,19.73
2019-05-13T05:50:11.958Z,16.30
2019-05-13T05:54:17.904Z,14.77
2019-05-13T05:58:17.303Z,10.87
2019-05-13T06:02:19.031Z,18.97
2019-05-13T06:06:32.755Z,16.40
2019-05-13T06:10:44.256Z,15.87
2019-05-13T06:14:32.979Z,19.33
2019-05-13T06:18:32.592Z,13.57
2019-05-13T06:22:42.390Z,17.23
2019-05-13T06:26:41.771Z,15.60
2019-05-13T06:30:41.578Z,14.23
2019-05-13T06:34:43.042Z,18.03
2019-05-13T06:38:43.935Z,23.50
2019-05-13T06:42:42.458Z,24.00
2019-05-13T06:46:42.458Z,15.43
2019-05-13T06:50:44.998Z,19.83
2019-05-13T06:59:24.196Z,25.37
2019-05-13T07:03:22.754Z,13.30
2019-05-13T07:07:24.250Z,16.53
2019-05-13T07:11:25.055Z,14.93
2019-05-13T07:15:26.220Z,13.93
2019-05-13T07:19:32.545Z,21.53
2019-05-13T07:23:34.708Z,14.63
2019-05-13T07:27:33.245Z,14.60
2019-05-13T07:31:35.635Z,17.67
2019-05-13T07:35:38.110Z,16.13
2019-05-13T07:39:38.038Z,16.07
2019-05-13T07:43:38.447Z,15.93
2019-05-13T07:47:41.674Z,18.30
2019-05-13T07:51:42.050Z,15.40
2019-05-13T07:55:53.347Z,14.70
2019-05-13T07:59:52.509Z,14.77
2019-05-13T08:03:51.682Z,14.00
2019-05-13T08:07:55.019Z,11.30
2019-05-13T08:12:05.424Z,11.63
2019-05-13T08:16:02.056Z,12.57
2019-05-13T08:20:02.875Z,13.83
2019-05-13T08:24:02.788Z,17.33
2019-05-13T08:28:05.030Z,16.17
2019-05-13T08:32:05.838Z,13.50
2019-05-13T08:36:08.979Z,13.40
2019-05-13T08:40:08.607Z,4.40
2019-05-13T08:44:07.247Z,14.97
2019-05-13T08:48:06.669Z,9.87
2019-05-13T08:52:12.288Z,14.00
2019-05-13T08:56:14.333Z,7.00
2019-05-13T09:00:16.043Z,8.73
2019-05-13T09:04:14.669Z,9.40
2019-05-13T09:08:14.544Z,11.13
2019-05-13T09:12:28.186Z,12.60
2019-05-13T09:16:13.553Z,7.47
2019-05-13T09:20:12.061Z,9.07
2019-05-13T09:24:21.710Z,11.63
2019-05-13T09:28:14.031Z,12.77
2019-05-13T09:32:12.899Z,3.33
2019-05-13T09:36:12.570Z,7.70
2019-05-13T09:40:15.209Z,6.07
2019-05-13T09:44:13.736Z,5.33
2019-05-13T09:48:13.820Z,4.80
2019-05-13T09:52:12.404Z,8.37
2019-05-13T09:56:11.817Z,13.37
2019-05-13T10:00:16.205Z,10.47
2019-05-13T10:04:14.973Z,6.60
2019-05-13T10:08:17.998Z,9.97
2019-05-13T10:12:13.931Z,6.53
2019-05-13T10:16:12.585Z,9.40
2019-05-13T10:20:13.739Z,8.67
2019-05-13T10:24:12.912Z,2.90
2019-05-13T10:28:13.288Z,10.27
2019-05-13T10:32:12.018Z,6.93
2019-05-13T10:36:12.121Z,10.20
2019-05-13T10:40:11.745Z,7.47
2019-05-13T10:44:12.080Z,4.43
2019-05-13T10:48:13.440Z,9.33
2019-05-13T10:52:12.463Z,6.73
2019-05-13T10:56:11.292Z,5.23
2019-05-13T11:00:12.343Z,5.00
2019-05-13T11:04:13.607Z,3.33
2019-05-13T11:08:11.284Z,5.73
2019-05-13T11:12:12.445Z,3.17
2019-05-13T11:16:12.276Z,6.03
2019-05-13T11:20:15.881Z,9.33
2019-05-13T11:24:14.423Z,3.07
2019-05-13T11:28:17.630Z,3.20
2019-05-13T11:32:16.156Z,4.50
2019-05-13T11:36:19.112Z,4.00
2019-05-13T11:40:18.706Z,4.87
2019-05-13T11:44:22.841Z,4.17
2019-05-13T11:48:23.475Z,3.77
2019-05-13T11:52:22.700Z,3.50
2019-05-13T11:56:24.307Z,3.63
2019-05-13T12:00:33.518Z,3.23
2019-05-13T12:04:34.351Z,7.17
2019-05-13T12:08:33.882Z,4.63
2019-05-13T12:12:34.644Z,3.90
2019-05-13T12:16:34.981Z,2.87
2019-05-13T12:20:34.093Z,5.60
2019-05-13T12:24:36.067Z,1.57
2019-05-13T12:28:53.197Z,2.70
2019-05-13T12:32:51.979Z,6.27
2019-05-13T12:36:50.990Z,4.17
2019-05-13T12:40:52.527Z,4.03
2019-05-13T12:45:03.829Z,3.33
2019-05-13T12:49:00.008Z,5.97
2019-05-13T12:53:02.688Z,3.67
2019-05-13T12:57:03.548Z,5.40
2019-05-13T13:01:08.265Z,9.83
2019-05-13T13:05:10.579Z,2.20
2019-05-13T13:09:09.255Z,7.80
2019-05-13T13:13:11.402Z,4.70
2019-05-13T13:17:13.698Z,5.23
2019-05-13T13:21:17.311Z,3.00
2019-05-13T13:25:38.308Z,1.83
2019-05-13T13:29:36.943Z,6.07
2019-05-13T13:33:38.849Z,2.77
2019-05-13T13:37:37.361Z,2.50
2019-05-13T13:41:36.122Z,4.63
2019-05-13T13:46:06.087Z,3.63
2019-05-13T13:49:35.487Z,4.23
2019-05-13T13:53:44.532Z,2.30
2019-05-13T13:57:44.977Z,3.33
2019-05-13T14:01:44.486Z,7.43
2019-05-13T14:05:44.952Z,2.53
2019-05-13T14:09:45.774Z,2.73
2019-05-13T14:13:44.297Z,3.27
2019-05-13T14:17:45.733Z,3.80
2019-05-13T14:21:46.550Z,3.30
2019-05-13T14:25:45.251Z,2.67
2019-05-13T14:29:49.082Z,2.10
2019-05-13T14:33:47.971Z,6.40
2019-05-13T14:37:46.897Z,7.23
2019-05-13T14:41:46.222Z,4.07
2019-05-13T14:45:52.101Z,9.53
2019-05-13T14:49:52.088Z,4.27
2019-05-13T14:53:53.321Z,5.80
2019-05-13T14:57:55.924Z,2.63
2019-05-13T15:01:58.355Z,3.72
2019-05-13T15:06:03.540Z,2.87
2019-05-13T15:10:10.330Z,4.05
2019-05-13T15:14:12.283Z,4.15
2019-05-13T15:18:14.195Z,3.10
2019-05-13T15:22:15.990Z,3.35
2019-05-13T15:26:14.688Z,3.98
2019-05-13T15:30:18.015Z,3.95
2019-05-13T15:34:27.298Z,1.95
2019-05-13T15:38:28.501Z,3.47
2019-05-13T15:42:27.346Z,3.60
2019-05-13T15:46:28.250Z,2.02
2019-05-13T15:50:28.973Z,1.60
2019-05-13T15:54:27.518Z,4.40
2019-05-13T15:58:38.432Z,1.70
2019-05-13T16:02:26.194Z,3.10
2019-05-13T16:06:24.752Z,3.92
2019-05-13T16:10:23.843Z,3.25
2019-05-13T16:14:31.483Z,3.87
2019-05-13T16:18:31.628Z,3.15
2019-05-13T16:22:31.555Z,2.35
2019-05-13T16:26:31.848Z,2.60
2019-05-13T16:30:32.093Z,4.70
2019-05-13T16:34:33.241Z,4.43
2019-05-13T16:38:33.047Z,2.27
2019-05-13T16:42:37.072Z,2.87
2019-05-13T16:46:35.618Z,1.93
2019-05-13T16:50:34.303Z,2.70
2019-05-13T16:54:33.183Z,1.97
2019-05-13T16:58:34.184Z,3.17
2019-05-13T17:02:34.518Z,4.73
2019-05-13T17:06:33.490Z,3.60
2019-05-13T17:10:35.310Z,3.33
2019-05-13T17:14:35.271Z,3.17
2019-05-13T17:18:34.434Z,2.50
2019-05-13T17:22:32.958Z,4.97
2019-05-13T17:26:32.705Z,3.13
2019-05-13T17:30:36.885Z,3.33
2019-05-13T17:34:35.393Z,4.03
2019-05-13T17:38:33.900Z,5.47
2019-05-13T17:42:37.439Z,2.83
2019-05-13T17:46:35.938Z,4.47
2019-05-13T17:50:37.383Z,4.17
2019-05-13T17:54:37.734Z,7.93
2019-05-13T17:58:47.263Z,3.73
2019-05-13T18:02:47.577Z,3.80
2019-05-13T18:06:47.583Z,3.07
2019-05-13T18:10:46.128Z,7.03
2019-05-13T18:14:44.653Z,2.53
2019-05-13T18:18:47.376Z,2.83
2019-05-13T18:22:43.526Z,2.67
2019-05-13T18:26:42.232Z,2.33
2019-05-13T18:30:44.866Z,20.07
2019-05-13T18:34:43.399Z,3.43
2019-05-13T18:38:44.590Z,4.10
2019-05-13T18:42:43.119Z,5.83
2019-05-13T18:46:47.794Z,3.10
2019-05-13T18:50:52.259Z,8.67
2019-05-13T18:54:57.034Z,4.03
2019-05-13T18:58:55.616Z,3.03
2019-05-13T19:03:01.107Z,1.93
2019-05-13T19:07:02.316Z,4.13
2019-05-13T19:11:01.220Z,7.97
2019-05-13T19:15:02.452Z,5.53
2019-05-13T19:19:11.789Z,7.07
2019-05-13T19:23:06.108Z,3.63
2019-05-13T19:27:04.839Z,4.40
2019-05-13T19:31:14.681Z,1.93
2019-05-13T19:35:21.666Z,1.30
2019-05-13T19:39:21.590Z,1.57
2019-05-13T19:43:26.731Z,4.87
2019-05-13T19:47:43.065Z,3.77
2019-05-13T19:51:41.721Z,3.83
2019-05-13T19:55:41.469Z,1.90
2019-05-13T19:59:47.602Z,3.13
2019-05-13T20:03:46.965Z,4.80
2019-05-13T20:07:45.490Z,3.30
2019-05-13T20:11:44.642Z,2.53
2019-05-13T20:15:43.174Z,5.23
2019-05-13T20:19:50.550Z,4.53
2019-05-13T20:23:56.115Z,4.73
2019-05-13T20:28:02.318Z,9.33
2019-05-13T20:32:12.623Z,5.17
2019-05-13T20:36:11.903Z,11.83
2019-05-13T20:40:16.757Z,5.73
2019-05-13T20:44:22.103Z,10.20
2019-05-13T20:48:37.352Z,4.03
2019-05-13T20:52:31.421Z,1.40
2019-05-13T20:56:33.659Z,3.60
2019-05-13T21:00:32.200Z,2.13
2019-05-13T21:04:32.162Z,2.43
2019-05-13T21:08:34.657Z,2.77
2019-05-13T21:12:33.199Z,3.53
2019-05-13T21:16:31.693Z,2.90
2019-05-13T21:20:32.060Z,5.00
2019-05-13T21:24:36.580Z,2.83
2019-05-13T21:28:36.945Z,2.07
2019-05-13T21:32:39.259Z,4.37
2019-05-13T21:36:37.846Z,2.40
2019-05-13T21:40:36.386Z,1.27
2019-05-13T21:44:34.851Z,3.13
2019-05-13T21:48:37.170Z,4.77
2019-05-13T21:52:38.247Z,2.37
2019-05-13T21:56:42.441Z,3.30
2019-05-13T22:00:48.662Z,2.20
2019-05-13T22:04:51.875Z,2.60
2019-05-13T22:08:55.323Z,5.27
2019-05-13T22:13:04.479Z,3.53
2019-05-13T22:17:03.217Z,2.77
2019-05-13T22:21:01.798Z,2.23
2019-05-13T22:25:06.362Z,3.87
2019-05-13T22:29:07.757Z,1.87
2019-05-13T22:33:06.235Z,2.57
2019-05-13T22:37:04.842Z,1.30
2019-05-13T22:41:05.749Z,2.23
2019-05-13T22:45:05.277Z,3.03
2019-05-13T22:49:11.606Z,4.97
2019-05-13T22:53:12.038Z,3.47
2019-05-13T22:57:11.895Z,7.27
2019-05-13T23:01:21.877Z,4.60
2019-05-13T23:05:22.750Z,7.73
2019-05-13T23:09:25.460Z,2.90
2019-05-13T23:13:23.947Z,5.23
2019-05-13T23:17:26.270Z,1.53
2019-05-13T23:21:31.120Z,2.37
2019-05-13T23:25:32.782Z,2.57
2019-05-13T23:29:35.109Z,3.00
2019-05-13T23:33:46.240Z,4.40
2019-05-13T23:37:50.884Z,4.47
2019-05-13T23:41:55.159Z,4.30
2019-05-13T23:45:53.619Z,4.70
2019-05-13T23:49:56.770Z,2.43
2019-05-13T23:53:57.179Z,5.53
2019-05-13T23:57:55.926Z,2.60
